Terminal Aerodrome Forecast
Issued by NWS

Home | Current Version | Previous Version | Text Only | Print | Product List | Glossary On
Versions: 1 2 3 4 5 6 7 8 9 10 11 12 13 14 15 16 17 18 19 20 21 22
000
FTUS43 KGRR 021700
TAFJXN
TAF
KJXN 021723Z 0218/0318 15008KT P6SM FEW050 FEW090
      TEMPO 0218/0222 5SM -SHRA OVC040
     FM022300 15008KT P6SM -SHRA OVC060
     FM031000 14008KT 5SM -SHRA BR OVC012
     FM031200 18006KT 2SM SHRA BR OVC005
     FM031400 22012KT 3/4SM -DZ BR OVC002
     FM031600 28015G25KT P6SM -SHRA OVC008=

USA.gov is the U.S. government's official web portal to all federal, state and local government web resources and services.